Time;durP1;ratioP1;P1;durP2;ratioP2;P2;SDS_P1;SDS_P2;PMS_P1;PMS_P2;Temp;Humidity;BMP_temperature;BMP_pressure;BME280_temperature;BME280_humidity;BME280_pressure;Samples;Min_cycle;Max_cycle;Signal;HPM_P1;HPM_P2
2022/05/12 00:00:30;;;;;;;9.40;3.50;;;;;;;25.72;42.67;99045.75;4126447;28;20293;-68
2022/05/12 00:02:32;;;;;;;4.95;2.78;;;;;;;26.13;41.92;99036.63;4125953;28;20358;-67
2022/05/12 00:04:36;;;;;;;4.55;3.10;;;;;;;25.73;42.09;99028.31;4127811;28;20388;-68
2022/05/12 00:06:37;;;;;;;5.85;2.83;;;;;;;25.57;42.32;99032.19;4130824;28;20225;-68
2022/05/12 00:08:39;;;;;;;4.70;2.75;;;;;;;25.53;42.41;99031.13;4129740;28;20291;-68
2022/05/12 00:10:42;;;;;;;3.90;2.85;;;;;;;25.57;42.19;99021.28;4128438;28;20241;-68
2022/05/12 00:12:44;;;;;;;7.35;2.67;;;;;;;25.09;42.35;99032.50;4130290;28;20238;-68
2022/05/12 00:14:46;;;;;;;5.82;2.72;;;;;;;25.07;41.94;99039.28;4128615;28;20248;-69
2022/05/12 00:16:48;;;;;;;4.70;2.55;;;;;;;25.30;41.80;99035.19;4133527;28;20719;-68
2022/05/12 00:18:50;;;;;;;4.22;2.50;;;;;;;25.56;40.88;99052.31;4131121;28;20780;-68
2022/05/12 00:20:52;;;;;;;4.93;2.53;;;;;;;25.63;40.62;99054.75;4135418;28;20295;-68
2022/05/12 00:23:19;;;;;;;4.47;2.50;;;;;;;25.31;41.17;99058.59;4133247;28;20296;-66
2022/05/12 00:25:23;;;;;;;4.80;2.65;;;;;;;25.27;41.48;99052.88;4133184;28;20233;-69
2022/05/12 00:27:25;;;;;;;6.68;2.75;;;;;;;24.95;42.14;99058.59;4132800;28;20649;-68
2022/05/12 00:29:26;;;;;;;4.40;2.80;;;;;;;24.93;41.55;99061.59;4132387;28;20290;-68
2022/05/12 00:31:29;;;;;;;4.28;2.50;;;;;;;25.89;40.71;99066.41;4133023;28;20614;-68
2022/05/12 00:33:31;;;;;;;3.80;2.50;;;;;;;25.54;41.15;99066.22;4128667;28;20241;-68
2022/05/12 00:35:33;;;;;;;7.00;2.90;;;;;;;25.41;41.07;99070.31;4141996;28;20233;-68
2022/05/12 00:37:35;;;;;;;5.63;2.50;;;;;;;25.83;40.35;99072.94;4129998;28;20679;-68
2022/05/12 00:39:36;;;;;;;3.28;2.80;;;;;;;25.42;40.95;99076.56;4137494;28;20292;-68
2022/05/12 00:41:38;;;;;;;3.30;2.40;;;;;;;25.53;40.86;99085.56;4130328;28;20296;-68
2022/05/12 00:43:47;;;;;;;5.95;3.00;;;;;;;25.66;40.38;99084.97;4127722;28;20242;-68
2022/05/12 00:45:49;;;;;;;5.40;2.90;;;;;;;25.75;40.61;99096.94;4129732;28;20316;-68
2022/05/12 00:47:51;;;;;;;8.35;2.70;;;;;;;25.15;41.55;99104.84;4135115;28;20835;-69
2022/05/12 00:49:53;;;;;;;6.38;2.70;;;;;;;25.23;41.82;99104.28;4132367;28;20237;-69
2022/05/12 00:52:06;;;;;;;4.22;2.63;;;;;;;25.18;41.78;99100.78;4130732;28;20266;-68
2022/05/12 00:54:25;;;;;;;6.95;2.90;;;;;;;24.82;42.55;99090.69;4134684;28;20226;-68
2022/05/12 00:56:27;;;;;;;6.03;3.13;;;;;;;25.53;41.73;99080.09;4128258;28;20245;-68
2022/05/12 00:58:32;;;;;;;4.15;2.60;;;;;;;25.02;42.57;99098.06;4137615;28;20234;-68
2022/05/12 01:00:35;;;;;;;3.78;2.70;;;;;;;25.45;42.13;99094.25;4123848;28;20565;-69
2022/05/12 01:02:40;;;;;;;6.53;2.80;;;;;;;24.98;42.42;99109.72;4126794;28;20300;-68
2022/05/12 01:04:44;;;;;;;3.55;2.83;;;;;;;24.92;42.58;99110.81;4124906;28;20238;-68
2022/05/12 01:06:46;;;;;;;6.22;2.97;;;;;;;24.96;42.20;99096.41;4135084;28;20719;-68
2022/05/12 01:08:48;;;;;;;6.18;2.75;;;;;;;25.20;42.11;99101.31;4131012;28;20241;-68
2022/05/12 01:10:54;;;;;;;5.78;3.03;;;;;;;25.34;42.02;99107.84;4134897;28;20238;-68
2022/05/12 01:13:00;;;;;;;6.45;2.80;;;;;;;25.17;42.06;99108.13;4128146;28;20662;-68
2022/05/12 01:15:02;;;;;;;4.10;2.60;;;;;;;25.81;41.74;99110.53;4130799;28;20336;-68
2022/05/12 01:17:05;;;;;;;5.05;3.15;;;;;;;25.54;42.00;99107.06;4131236;28;20710;-68
2022/05/12 01:19:11;;;;;;;5.90;3.33;;;;;;;25.71;42.03;99112.19;4128718;28;20414;-68
2022/05/12 01:21:12;;;;;;;4.90;3.08;;;;;;;25.73;41.76;99122.81;4131620;28;20649;-69
2022/05/12 01:23:20;;;;;;;4.20;2.90;;;;;;;25.04;42.57;99130.41;4130652;28;20253;-68
2022/05/12 01:25:25;;;;;;;5.40;2.63;;;;;;;25.14;42.24;99124.16;4138335;28;20236;-67
2022/05/12 01:27:30;;;;;;;4.15;2.80;;;;;;;24.63;42.94;99124.84;4129971;28;20237;-68
2022/05/12 01:29:31;;;;;;;3.05;2.53;;;;;;;24.61;42.80;99119.69;4128093;28;20230;-68
2022/05/12 01:31:34;;;;;;;3.35;2.63;;;;;;;25.20;41.78;99126.59;4127153;28;20738;-68
2022/05/12 01:33:36;;;;;;;4.63;2.40;;;;;;;24.85;42.35;99122.78;4127226;28;20244;-67
2022/05/12 01:35:38;;;;;;;3.40;2.60;;;;;;;24.94;42.00;99120.34;4132973;28;20742;-68
2022/05/12 01:37:41;;;;;;;4.85;2.30;;;;;;;23.94;43.39;99124.81;4127740;28;20285;-68
2022/05/12 01:39:43;;;;;;;3.33;2.40;;;;;;;24.82;42.06;99120.59;4128576;28;20339;-68
2022/05/12 01:41:44;;;;;;;5.15;2.50;;;;;;;24.82;42.12;99127.94;4128661;28;20242;-68
2022/05/12 01:43:46;;;;;;;5.93;2.58;;;;;;;24.27;43.02;99122.81;4130835;28;20241;-68
2022/05/12 01:45:48;;;;;;;4.15;2.45;;;;;;;24.50;42.25;99123.47;4123372;28;20738;-68
2022/05/12 01:47:50;;;;;;;3.67;2.28;;;;;;;24.26;42.63;99121.22;4127080;28;20265;-68
2022/05/12 01:49:52;;;;;;;4.93;2.22;;;;;;;24.05;42.58;99127.59;4131225;28;20648;-68
2022/05/12 01:51:55;;;;;;;4.55;2.17;;;;;;;23.93;42.96;99141.38;4122163;28;20706;-68
2022/05/12 01:53:57;;;;;;;2.53;1.90;;;;;;;23.85;42.92;99142.69;4127278;28;20288;-68
2022/05/12 01:55:59;;;;;;;4.15;2.17;;;;;;;23.56;43.48;99158.50;4134720;28;20234;-67
2022/05/12 01:58:00;;;;;;;4.85;2.15;;;;;;;23.98;42.83;99152.25;4134937;28;20222;-68
2022/05/12 02:00:04;;;;;;;2.65;1.92;;;;;;;24.07;42.51;99156.09;4129320;28;20710;-68
2022/05/12 02:02:06;;;;;;;2.85;2.25;;;;;;;23.78;43.03;99161.09;4123202;28;20280;-70
2022/05/12 02:04:07;;;;;;;2.63;2.20;;;;;;;23.62;43.33;99168.31;4125216;28;20300;-68
2022/05/12 02:06:09;;;;;;;2.78;2.40;;;;;;;23.64;43.49;99173.50;4128860;28;20253;-68
2022/05/12 02:08:12;;;;;;;5.28;2.35;;;;;;;23.35;43.71;99168.31;4134236;28;20233;-67
2022/05/12 02:10:20;;;;;;;2.30;2.10;;;;;;;23.53;43.57;99169.84;4129917;28;20229;-68
2022/05/12 02:12:22;;;;;;;4.93;2.20;;;;;;;23.39;43.85;99175.69;4127267;28;20252;-67
2022/05/12 02:14:23;;;;;;;4.22;2.15;;;;;;;23.35;43.91;99177.28;4126778;28;20230;-68
2022/05/12 02:16:26;;;;;;;3.97;2.20;;;;;;;23.87;43.14;99183.13;4124960;28;20300;-68
2022/05/12 02:18:28;;;;;;;4.05;2.00;;;;;;;24.08;42.83;99184.09;4131450;28;20241;-68
2022/05/12 02:20:30;;;;;;;2.88;2.10;;;;;;;23.99;42.88;99189.22;4129572;28;20234;-68
2022/05/12 02:22:32;;;;;;;3.70;2.28;;;;;;;24.00;42.97;99193.53;4128468;28;20226;-67
2022/05/12 02:24:33;;;;;;;3.45;2.35;;;;;;;23.63;43.82;99207.94;4126737;28;20702;-68
2022/05/12 02:26:35;;;;;;;3.53;2.38;;;;;;;23.48;44.30;99222.16;4132171;28;20234;-68
2022/05/12 02:28:37;;;;;;;3.65;2.30;;;;;;;23.45;44.17;99216.44;4126046;28;20230;-68
2022/05/12 02:30:39;;;;;;;3.50;2.20;;;;;;;23.38;44.42;99212.03;4130879;28;20296;-68
2022/05/12 02:32:40;;;;;;;4.93;2.17;;;;;;;23.68;43.67;99218.81;4130032;28;20263;-67
2022/05/12 02:34:42;;;;;;;4.18;2.35;;;;;;;23.80;43.50;99224.06;4132697;28;20276;-67
2022/05/12 02:36:59;;;;;;;2.55;2.35;;;;;;;23.56;43.76;99229.84;4129338;28;20369;-67
2022/05/12 02:39:02;;;;;;;2.55;2.08;;;;;;;24.01;43.50;99227.78;4131277;28;20312;-68
2022/05/12 02:41:03;;;;;;;5.25;2.40;;;;;;;23.68;43.86;99235.09;4142386;28;20232;-68
2022/05/12 02:43:29;;;;;;;4.05;2.20;;;;;;;23.45;44.16;99243.56;4136324;28;20860;-68
2022/05/12 02:45:28;;;;;;;2.92;1.90;;;;;;;23.51;43.69;99256.91;4127315;28;20233;-68
2022/05/12 02:47:30;;;;;;;3.53;2.08;;;;;;;23.57;43.88;99253.22;4126571;28;20262;-67
2022/05/12 02:49:32;;;;;;;3.42;2.00;;;;;;;23.83;43.26;99253.44;4126063;28;20229;-67
2022/05/12 02:51:34;;;;;;;5.32;2.13;;;;;;;23.53;43.81;99260.19;4127260;28;20277;-67
2022/05/12 02:53:36;;;;;;;2.78;2.08;;;;;;;23.29;44.31;99256.16;4128522;28;20634;-67
2022/05/12 02:55:39;;;;;;;4.30;2.00;;;;;;;23.53;43.84;99260.19;4125488;28;20288;-68
2022/05/12 02:57:41;;;;;;;3.00;2.22;;;;;;;23.48;43.68;99259.31;4121268;28;20296;-67
2022/05/12 02:59:43;;;;;;;3.17;1.98;;;;;;;23.50;43.73;99262.59;4129486;28;20242;-67
2022/05/12 03:01:44;;;;;;;4.60;2.22;;;;;;;22.95;44.70;99259.03;4125599;28;20284;-67
2022/05/12 03:03:46;;;;;;;3.10;2.20;;;;;;;23.08;44.54;99255.94;4126585;28;20238;-68
2022/05/12 03:05:51;;;;;;;3.55;1.92;;;;;;;23.24;44.25;99253.41;4128814;28;20316;-67
2022/05/12 03:07:53;;;;;;;4.80;2.20;;;;;;;23.27;43.87;99256.41;4130847;28;20525;-68
2022/05/12 03:09:55;;;;;;;2.35;1.95;;;;;;;22.87;44.81;99252.13;4129606;28;20241;-68
2022/05/12 03:11:57;;;;;;;7.07;2.00;;;;;;;23.30;44.17;99253.19;4130469;28;20323;-67
2022/05/12 03:13:59;;;;;;;3.15;1.80;;;;;;;23.03;44.31;99255.88;4126979;28;20760;-68
2022/05/12 03:16:01;;;;;;;3.67;2.08;;;;;;;23.36;44.25;99259.47;4129217;28;20245;-67
2022/05/12 03:18:04;;;;;;;5.72;2.42;;;;;;;22.92;44.37;99263.06;4127559;28;20238;-68
2022/05/12 03:20:09;;;;;;;5.28;1.90;;;;;;;22.82;44.96;99265.63;4131667;28;21000;-68
2022/05/12 03:22:12;;;;;;;4.78;2.63;;;;;;;22.61;45.36;99278.91;4127031;28;20229;-68
2022/05/12 03:24:18;;;;;;;5.32;1.60;;;;;;;22.96;44.73;99275.06;4126398;28;20646;-68
2022/05/12 03:26:21;;;;;;;2.83;2.05;;;;;;;22.94;44.90;99274.47;4126387;28;20238;-67
2022/05/12 03:28:22;;;;;;;4.07;1.88;;;;;;;22.78;45.25;99278.06;4127119;28;20768;-68
2022/05/12 03:30:25;;;;;;;2.40;2.20;;;;;;;22.00;46.60;99277.97;4126474;28;20306;-67
2022/05/12 03:32:27;;;;;;;1.85;1.73;;;;;;;22.23;45.99;99275.06;4128240;28;20222;-67
2022/05/12 03:34:30;;;;;;;2.85;2.10;;;;;;;22.43;45.85;99273.78;4135965;28;20239;-71
2022/05/12 03:36:35;;;;;;;2.58;1.70;;;;;;;22.37;45.89;99275.59;4129653;28;20238;-71
2022/05/12 03:38:37;;;;;;;4.23;2.10;;;;;;;22.51;45.72;99289.59;4126455;28;20237;-69
2022/05/12 03:40:39;;;;;;;2.20;2.00;;;;;;;22.05;46.17;99300.53;4125106;28;20280;-68
2022/05/12 03:42:41;;;;;;;1.95;1.85;;;;;;;21.92;46.73;99292.75;4131477;28;20756;-67
2022/05/12 03:44:50;;;;;;;2.80;1.90;;;;;;;22.01;46.49;99303.97;4126635;28;20257;-68
2022/05/12 03:46:51;;;;;;;1.80;1.60;;;;;;;21.93;46.72;99305.19;4131198;28;20650;-67
2022/05/12 03:48:53;;;;;;;2.17;1.85;;;;;;;21.62;47.35;99310.03;4127259;28;20232;-68
2022/05/12 03:50:55;;;;;;;2.60;1.93;;;;;;;21.76;46.96;99307.06;4130636;28;20568;-68
2022/05/12 03:52:56;;;;;;;4.63;1.87;;;;;;;21.54;47.41;99319.38;4131380;28;20272;-67
2022/05/12 03:54:59;;;;;;;4.33;2.00;;;;;;;21.91;47.13;99310.03;4128379;28;20210;-68
2022/05/12 03:57:02;;;;;;;3.83;1.77;;;;;;;21.50;47.70;99312.81;4132098;28;20359;-68
2022/05/12 03:59:05;;;;;;;1.80;1.70;;;;;;;21.67;47.18;99322.88;4130595;28;20294;-68
2022/05/12 04:01:07;;;;;;;3.13;1.70;;;;;;;21.49;47.72;99318.47;4129585;28;20229;-68
2022/05/12 04:03:09;;;;;;;2.83;1.90;;;;;;;21.77;47.35;99314.13;4131361;28;20474;-67
2022/05/12 04:05:11;;;;;;;4.10;1.77;;;;;;;21.67;47.63;99323.69;4134505;28;20225;-67
2022/05/12 04:07:22;;;;;;;2.70;1.80;;;;;;;21.66;47.64;99335.59;4134297;28;20272;-67
2022/05/12 04:09:25;;;;;;;5.07;2.42;;;;;;;21.78;47.47;99332.84;4124798;28;20355;-68
2022/05/12 04:11:26;;;;;;;4.47;2.07;;;;;;;21.61;47.85;99335.44;4134536;28;20234;-68
2022/05/12 04:13:28;;;;;;;2.53;1.60;;;;;;;21.51;47.98;99344.22;4127392;28;20234;-68
2022/05/12 04:15:30;;;;;;;5.30;1.70;;;;;;;21.79;47.70;99349.88;4133470;28;20237;-68
2022/05/12 04:17:31;;;;;;;1.80;1.70;;;;;;;21.74;47.74;99350.59;4132558;28;20237;-67
2022/05/12 04:19:33;;;;;;;1.90;1.70;;;;;;;21.85;47.64;99354.31;4134875;28;20311;-68
2022/05/12 04:21:36;;;;;;;3.73;1.70;;;;;;;21.85;47.84;99362.41;4138960;28;20603;-68
2022/05/12 04:23:38;;;;;;;1.80;1.70;;;;;;;21.59;47.85;99369.22;4129427;28;20329;-68
2022/05/12 04:25:40;;;;;;;3.07;1.77;;;;;;;22.09;46.93;99368.53;4130192;28;20226;-67
2022/05/12 04:27:41;;;;;;;3.83;1.83;;;;;;;22.41;46.41;99368.03;4126538;28;20233;-67
2022/05/12 04:29:43;;;;;;;3.20;1.90;;;;;;;22.23;47.08;99372.56;4129885;28;20308;-67
2022/05/12 04:31:45;;;;;;;2.07;1.80;;;;;;;22.09;47.00;99373.97;4132877;28;20292;-68
2022/05/12 04:36:07;;;;;;;2.23;1.83;;;;;;;21.78;47.96;99386.13;4125243;28;20284;-68
2022/05/12 04:38:10;;;;;;;3.50;1.80;;;;;;;22.13;47.56;99380.53;4127904;28;20654;-68
2022/05/12 04:40:33;;;;;;;3.90;1.80;;;;;;;21.75;47.88;99394.72;4128469;28;20258;-67
2022/05/12 04:42:35;;;;;;;1.60;1.50;;;;;;;21.65;47.95;99395.34;4127617;28;20317;-67
2022/05/12 04:44:37;;;;;;;2.67;1.87;;;;;;;21.90;47.76;99395.84;4125202;28;20234;-68
2022/05/12 04:46:40;;;;;;;3.07;1.80;;;;;;;22.22;47.43;99387.19;4128557;28;20234;-68
2022/05/12 04:48:42;;;;;;;4.77;2.00;;;;;;;22.24;47.33;99398.59;4128343;28;20222;-68
2022/05/12 04:50:44;;;;;;;2.30;1.80;;;;;;;22.04;47.56;99412.59;4125877;28;20238;-70
2022/05/12 04:52:47;;;;;;;3.27;2.10;;;;;;;22.02;47.46;99414.72;4120069;28;20284;-70
2022/05/12 04:54:49;;;;;;;1.73;1.57;;;;;;;22.17;47.46;99408.75;4128715;28;20230;-69
2022/05/12 04:56:51;;;;;;;5.17;1.80;;;;;;;22.01;47.88;99413.06;4129525;28;20238;-70
2022/05/12 04:58:53;;;;;;;3.70;1.77;;;;;;;22.12;47.58;99426.78;4128143;28;20230;-70
2022/05/12 05:02:29;;;;;;;2.83;2.07;;;;;;;21.03;50.17;99393.25;4136188;28;20578;-70
2022/05/12 05:04:31;;;;;;;3.67;2.10;;;;;;;21.63;48.74;99395.59;4151271;28;20660;-71
2022/05/12 05:06:33;;;;;;;3.57;2.07;;;;;;;21.78;48.17;99402.34;4146400;28;20241;-70
2022/05/12 05:08:34;;;;;;;5.23;2.00;;;;;;;22.33;47.45;99409.88;4145310;28;20229;-70
2022/05/12 05:10:36;;;;;;;2.30;1.93;;;;;;;22.10;47.98;99416.19;4143499;28;20233;-70
2022/05/12 05:12:42;;;;;;;4.38;2.00;;;;;;;21.94;48.48;99430.53;4142289;28;20573;-70
2022/05/12 05:14:43;;;;;;;3.20;1.77;;;;;;;22.59;46.94;99434.66;4146926;28;20279;-69
2022/05/12 05:16:46;;;;;;;3.38;2.10;;;;;;;22.36;47.53;99443.78;4143000;28;20236;-70
2022/05/12 05:18:48;;;;;;;2.70;1.90;;;;;;;22.08;47.86;99451.66;4141796;28;20340;-70
2022/05/12 05:20:50;;;;;;;4.13;1.80;;;;;;;22.22;47.76;99457.59;4142319;28;20904;-70
2022/05/12 05:22:53;;;;;;;4.03;2.03;;;;;;;22.13;48.22;99458.22;4141289;28;20233;-70
2022/05/12 05:24:55;;;;;;;1.57;1.47;;;;;;;22.45;47.60;99467.50;4141853;28;20229;-70
2022/05/12 05:26:56;;;;;;;4.63;2.37;;;;;;;22.38;47.57;99466.81;4142326;28;20298;-70
2022/05/12 05:28:58;;;;;;;2.23;2.03;;;;;;;22.34;47.56;99471.09;4148158;28;20246;-70
2022/05/12 05:31:00;;;;;;;2.13;1.80;;;;;;;22.40;47.51;99470.09;4143046;28;20359;-70
2022/05/12 05:33:01;;;;;;;5.77;1.97;;;;;;;22.30;47.20;99485.38;4142769;28;20280;-71
2022/05/12 05:35:04;;;;;;;2.70;1.77;;;;;;;22.34;47.34;99487.34;4143140;28;20626;-71
2022/05/12 05:37:06;;;;;;;2.53;2.10;;;;;;;22.15;47.67;99488.56;4144514;28;20311;-71
2022/05/12 05:39:18;;;;;;;2.50;2.30;;;;;;;22.45;47.53;99489.16;4148710;28;20710;-70
2022/05/12 05:41:19;;;;;;;3.47;1.90;;;;;;;22.31;47.71;99495.16;4142702;28;20272;-70
2022/05/12 05:43:22;;;;;;;4.50;2.47;;;;;;;22.23;47.96;99502.53;4144347;28;20343;-72
2022/05/12 05:45:25;;;;;;;3.47;2.37;;;;;;;21.73;48.82;99508.59;4142009;28;20238;-71
2022/05/12 05:47:28;;;;;;;3.83;1.90;;;;;;;22.32;48.18;99502.19;4141469;28;20341;-72
2022/05/12 05:49:30;;;;;;;3.03;2.10;;;;;;;22.23;48.01;99512.56;4141404;28;20765;-71
2022/05/12 05:53:54;;;;;;;5.45;2.20;;;;;;;22.26;48.56;99504.78;4139930;28;20241;-72
2022/05/12 05:56:00;;;;;;;2.03;1.93;;;;;;;22.19;48.83;99516.84;4141579;28;20295;-71
2022/05/12 05:58:04;;;;;;;7.90;2.10;;;;;;;21.92;48.63;99515.50;4142452;28;20285;-71
2022/05/12 06:00:06;;;;;;;2.87;2.07;;;;;;;22.12;48.54;99521.56;4140331;28;20225;-72
2022/05/12 06:02:08;;;;;;;2.20;2.00;;;;;;;22.44;47.87;99525.47;4142112;28;20441;-72
2022/05/12 06:04:10;;;;;;;2.77;2.30;;;;;;;22.08;48.70;99529.34;4142727;28;20272;-72
2022/05/12 06:06:12;;;;;;;3.90;2.00;;;;;;;22.00;48.68;99527.84;4142341;28;20225;-72
2022/05/12 06:08:16;;;;;;;2.77;1.70;;;;;;;22.15;48.84;99529.19;4138617;28;20237;-71
2022/05/12 06:10:18;;;;;;;3.90;1.93;;;;;;;21.83;49.10;99526.94;4146959;28;20287;-72
2022/05/12 06:12:19;;;;;;;2.53;2.20;;;;;;;21.95;49.40;99521.50;4139085;28;20226;-71
2022/05/12 06:14:21;;;;;;;3.43;2.07;;;;;;;22.34;48.69;99529.84;4129758;28;20357;-71
2022/05/12 06:16:23;;;;;;;3.23;1.93;;;;;;;22.13;48.64;99528.63;4135533;28;20297;-72
2022/05/12 06:18:24;;;;;;;2.10;1.80;;;;;;;22.40;48.65;99518.06;4130092;28;20782;-71
2022/05/12 06:20:26;;;;;;;7.57;2.03;;;;;;;21.85;49.54;99531.06;4140422;28;20777;-71
2022/05/12 06:22:28;;;;;;;5.17;1.87;;;;;;;22.29;48.85;99536.00;4132332;28;20288;-70
2022/05/12 06:24:29;;;;;;;2.80;1.77;;;;;;;22.26;48.52;99533.75;4127650;28;20234;-71
2022/05/12 06:26:31;;;;;;;3.87;2.17;;;;;;;22.27;48.89;99546.22;4130526;28;20321;-71
2022/05/12 06:28:33;;;;;;;3.25;1.90;;;;;;;21.62;49.98;99545.41;4134709;28;20241;-71
2022/05/12 06:30:35;;;;;;;3.40;2.00;;;;;;;21.77;49.41;99542.25;4130830;28;20618;-71
2022/05/12 06:32:37;;;;;;;3.92;1.70;;;;;;;22.03;49.14;99554.41;4135250;28;20237;-71
2022/05/12 06:34:42;;;;;;;5.07;1.80;;;;;;;21.97;49.20;99547.28;4131529;28;20300;-71
2022/05/12 06:36:44;;;;;;;3.13;1.50;;;;;;;21.96;48.86;99545.63;4128913;28;20296;-71
2022/05/12 06:38:47;;;;;;;3.07;1.70;;;;;;;21.71;49.29;99570.25;4129781;28;20758;-71
2022/05/12 06:40:48;;;;;;;2.90;1.77;;;;;;;21.95;49.54;99557.53;4128405;28;20780;-71
2022/05/12 06:42:51;;;;;;;5.37;1.60;;;;;;;21.70;49.30;99564.03;4136315;28;20242;-71
2022/05/12 06:44:54;;;;;;;2.53;1.60;;;;;;;22.02;48.92;99560.09;4134780;28;20671;-71
2022/05/12 06:46:55;;;;;;;1.70;1.60;;;;;;;22.18;48.51;99564.72;4129554;28;20245;-70
2022/05/12 06:48:57;;;;;;;2.07;1.60;;;;;;;22.65;47.90;99567.28;4132725;28;20206;-71
2022/05/12 06:50:59;;;;;;;2.43;2.00;;;;;;;21.82;50.50;99582.13;4134534;28;20209;-71
2022/05/12 06:53:01;;;;;;;4.37;2.10;;;;;;;21.88;49.20;99592.00;4138023;28;20308;-71
2022/05/12 06:55:03;;;;;;;3.75;1.70;;;;;;;21.47;49.39;99596.47;4137879;28;20237;-71
2022/05/12 06:57:05;;;;;;;4.07;2.20;;;;;;;21.99;48.72;99582.22;4138826;28;20690;-71
2022/05/12 06:59:08;;;;;;;3.08;2.10;;;;;;;21.94;49.03;99584.81;4128731;28;20234;-71
2022/05/12 07:01:11;;;;;;;3.95;1.60;;;;;;;21.76;48.70;99596.59;4135346;28;20304;-71
2022/05/12 07:03:13;;;;;;;2.23;1.83;;;;;;;21.87;49.00;99604.72;4132231;28;20238;-70
2022/05/12 07:05:18;;;;;;;3.53;1.60;;;;;;;22.06;48.95;99599.16;4133413;28;20252;-70
2022/05/12 07:07:20;;;;;;;5.33;2.07;;;;;;;22.32;48.29;99597.84;4128037;28;20292;-70
2022/05/12 07:09:23;;;;;;;2.15;1.77;;;;;;;21.89;48.41;99604.47;4127647;28;20296;-70
2022/05/12 07:11:24;;;;;;;3.13;1.63;;;;;;;22.04;47.97;99607.50;4124572;28;20299;-70
2022/05/12 07:13:26;;;;;;;5.47;2.50;;;;;;;22.33;47.84;99618.41;4132259;28;20871;-70
2022/05/12 07:15:28;;;;;;;2.22;1.50;;;;;;;22.26;47.54;99615.00;4126060;28;20241;-70
2022/05/12 07:17:30;;;;;;;5.07;1.87;;;;;;;22.21;47.85;99617.59;4122601;28;20237;-70
2022/05/12 07:19:33;;;;;;;4.33;1.90;;;;;;;22.44;47.21;99616.75;4136070;28;20777;-70
2022/05/12 07:26:35;;;;;;;4.95;1.88;;;;;;;22.81;46.79;99629.88;4118863;28;20300;-70
2022/05/12 07:28:38;;;;;;;3.63;1.67;;;;;;;22.82;47.05;99626.94;4128083;28;20759;-70
2022/05/12 07:33:07;;;;;;;4.32;2.22;;;;;;;22.50;47.64;99623.91;4125222;28;20242;-70
2022/05/12 07:35:09;;;;;;;3.05;1.92;;;;;;;23.12;46.99;99619.63;4129495;28;20234;-70
2022/05/12 07:37:11;;;;;;;7.70;2.50;;;;;;;23.02;47.42;99623.78;4129849;28;20291;-70
2022/05/12 07:39:13;;;;;;;4.32;1.83;;;;;;;22.87;47.28;99625.41;4129113;28;20276;-70
2022/05/12 07:41:17;;;;;;;1.90;1.40;;;;;;;22.16;48.15;99633.75;4131560;28;20248;-70
2022/05/12 07:43:20;;;;;;;4.55;2.00;;;;;;;23.00;47.28;99625.13;4131593;28;20284;-70
2022/05/12 07:45:22;;;;;;;3.17;1.40;;;;;;;23.04;47.45;99628.97;4129451;28;20727;-70
2022/05/12 07:47:26;;;;;;;3.78;1.90;;;;;;;23.14;46.91;99631.84;4134131;28;20241;-70
2022/05/12 07:49:31;;;;;;;3.38;1.70;;;;;;;22.81;47.98;99633.44;4129556;28;20715;-70
2022/05/12 07:51:33;;;;;;;4.20;1.85;;;;;;;22.93;47.13;99638.00;4128993;28;20230;-70
2022/05/12 07:53:37;;;;;;;7.13;2.03;;;;;;;22.98;47.48;99633.50;4128245;28;20222;-70
2022/05/12 07:55:38;;;;;;;2.25;1.85;;;;;;;23.07;46.99;99636.63;4122443;28;20222;-70
2022/05/12 07:57:41;;;;;;;4.00;2.00;;;;;;;23.22;46.30;99644.22;4116951;28;20233;-70
2022/05/12 07:59:43;;;;;;;6.75;2.40;;;;;;;23.02;47.06;99639.25;4127802;28;20316;-70
2022/05/12 08:01:44;;;;;;;2.22;1.75;;;;;;;23.29;47.30;99641.34;4139989;28;20241;-70
2022/05/12 08:03:47;;;;;;;5.32;2.00;;;;;;;23.50;46.98;99648.75;4132115;28;20241;-71
2022/05/12 08:05:49;;;;;;;3.67;1.65;;;;;;;23.18;46.65;99648.47;4127664;28;20723;-70
2022/05/12 08:07:52;;;;;;;3.65;1.88;;;;;;;23.28;46.55;99654.09;4126445;28;20280;-70
2022/05/12 08:09:54;;;;;;;4.95;2.17;;;;;;;23.50;46.77;99650.59;4134599;28;20805;-70
2022/05/12 08:11:55;;;;;;;4.38;1.60;;;;;;;23.43;46.36;99649.97;4129963;28;20831;-68
2022/05/12 08:13:57;;;;;;;4.25;1.63;;;;;;;23.40;46.52;99651.28;4128359;28;20315;-68
2022/05/12 08:16:00;;;;;;;1.63;1.50;;;;;;;23.06;47.32;99651.25;4130979;28;20242;-68
2022/05/12 08:18:02;;;;;;;3.92;1.95;;;;;;;23.32;47.33;99646.28;4127792;28;20238;-68
2022/05/12 08:20:05;;;;;;;4.95;1.85;;;;;;;23.30;47.69;99651.09;4136244;28;20237;-68
2022/05/12 08:22:08;;;;;;;4.13;1.88;;;;;;;22.37;47.86;99659.38;4125533;28;20242;-68
2022/05/12 08:24:09;;;;;;;4.03;1.83;;;;;;;22.84;47.99;99668.19;4133877;28;20238;-68
2022/05/12 08:26:11;;;;;;;4.05;2.05;;;;;;;23.09;47.01;99664.31;4125742;28;20257;-68
2022/05/12 08:28:15;;;;;;;3.38;1.75;;;;;;;23.45;46.37;99666.81;4128528;28;20234;-68
2022/05/12 08:30:17;;;;;;;4.03;1.77;;;;;;;22.44;47.43;99669.03;4128320;28;20544;-68
2022/05/12 08:32:19;;;;;;;5.18;1.90;;;;;;;22.75;47.57;99668.81;4128236;28;20229;-68
2022/05/12 08:34:21;;;;;;;4.97;1.60;;;;;;;23.54;46.14;99663.44;4128822;28;20238;-68
2022/05/12 08:36:23;;;;;;;2.22;1.90;;;;;;;23.38;45.82;99675.94;4135498;28;20240;-68
2022/05/12 08:38:25;;;;;;;4.80;2.08;;;;;;;23.17;46.50;99682.09;4131267;28;20286;-68
2022/05/12 08:40:52;;;;;;;6.72;1.90;;;;;;;22.93;47.06;99675.94;4126088;28;20747;-68
2022/05/12 08:42:58;;;;;;;4.95;1.88;;;;;;;23.26;46.79;99671.66;4124302;28;20691;-68
2022/05/12 08:45:07;;;;;;;3.80;1.70;;;;;;;23.46;46.91;99666.56;4127617;28;20229;-68
2022/05/12 08:47:14;;;;;;;3.13;1.90;;;;;;;24.11;45.33;99664.31;4134262;28;20784;-68
2022/05/12 08:49:39;;;;;;;4.22;1.73;;;;;;;23.65;46.74;99669.06;4125075;28;20335;-68
2022/05/12 08:51:42;;;;;;;3.15;2.03;;;;;;;23.60;45.85;99674.41;4122551;28;20237;-68
2022/05/12 08:53:53;;;;;;;2.20;1.55;;;;;;;23.86;46.55;99670.19;4128946;28;20312;-68
2022/05/12 08:55:57;;;;;;;3.58;1.88;;;;;;;22.84;46.81;99680.91;4128701;28;20278;-68
2022/05/12 08:58:06;;;;;;;6.47;1.60;;;;;;;23.81;45.90;99678.28;4124756;28;20237;-68
2022/05/12 09:00:12;;;;;;;3.17;2.00;;;;;;;24.43;44.97;99680.78;4128541;28;20296;-68
2022/05/12 09:02:30;;;;;;;4.95;1.80;;;;;;;24.13;45.29;99681.16;4129703;28;20232;-69
2022/05/12 09:04:53;;;;;;;3.53;1.85;;;;;;;23.35;45.92;99681.03;4134097;28;20582;-68
2022/05/12 09:07:04;;;;;;;3.22;1.70;;;;;;;23.73;46.67;99684.94;4128304;28;20306;-68
2022/05/12 09:09:35;;;;;;;5.85;2.15;;;;;;;24.19;46.06;99674.75;4123650;28;20663;-68
2022/05/12 09:11:38;;;;;;;5.50;1.92;;;;;;;24.07;45.57;99672.09;4126584;28;20240;-68
2022/05/12 09:13:53;;;;;;;5.07;2.20;;;;;;;24.04;45.93;99677.22;4129631;28;20237;-68
2022/05/12 09:16:13;;;;;;;5.10;2.00;;;;;;;24.19;45.47;99672.03;4120459;28;20253;-68
2022/05/12 09:18:18;;;;;;;3.42;2.13;;;;;;;24.25;45.20;99676.47;4129968;28;20316;-68
2022/05/12 09:20:21;;;;;;;3.83;1.90;;;;;;;23.47;45.72;99679.06;4128969;28;20232;-68
2022/05/12 09:22:30;;;;;;;3.45;1.90;;;;;;;23.49;45.65;99678.84;4126897;28;20233;-68
2022/05/12 09:24:31;;;;;;;2.78;1.80;;;;;;;23.95;44.67;99674.13;4127072;28;20237;-68
2022/05/12 09:26:48;;;;;;;4.22;1.90;;;;;;;23.42;45.74;99684.41;4130477;28;20226;-68
2022/05/12 09:28:50;;;;;;;4.03;1.90;;;;;;;24.25;45.28;99667.50;4129067;28;20252;-68
2022/05/12 09:30:52;;;;;;;4.68;1.92;;;;;;;24.78;44.59;99665.16;4129865;28;20234;-67
2022/05/12 09:32:58;;;;;;;1.70;1.60;;;;;;;24.05;45.19;99674.25;4121026;28;20961;-69
2022/05/12 09:35:11;;;;;;;3.28;1.90;;;;;;;24.22;44.73;99671.53;4129003;28;20291;-68
2022/05/12 09:37:24;;;;;;;4.53;2.03;;;;;;;24.79;44.49;99667.63;4133529;28;20248;-68
2022/05/12 09:39:38;;;;;;;10.20;1.80;;;;;;;24.83;44.49;99659.75;4129095;28;20234;-67
2022/05/12 09:41:44;;;;;;;5.05;1.83;;;;;;;24.33;44.53;99656.19;4126253;28;20237;-68
2022/05/12 09:43:46;;;;;;;4.70;2.25;;;;;;;24.39;44.17;99657.06;4130401;28;20241;-68
2022/05/12 09:46:15;;;;;;;5.22;2.08;;;;;;;24.41;44.67;99658.47;4127659;28;20246;-68
2022/05/12 09:48:18;;;;;;;5.65;1.90;;;;;;;25.05;43.55;99659.69;4122724;28;20252;-68
2022/05/12 09:50:22;;;;;;;2.25;1.80;;;;;;;24.96;44.39;99653.91;4128527;28;20230;-69
2022/05/12 09:52:27;;;;;;;3.25;1.90;;;;;;;24.62;44.50;99658.72;4134163;28;20261;-69
2022/05/12 09:54:29;;;;;;;5.07;1.80;;;;;;;24.83;43.94;99657.88;4133381;28;20734;-71
2022/05/12 09:56:34;;;;;;;4.88;2.13;;;;;;;24.40;44.54;99656.00;4137373;28;20292;-71